createdAt,value
2023-05-16T00:01:30.324Z,17.33
2023-05-16T00:03:57.780Z,19.67
2023-05-16T00:06:25.508Z,18.85
2023-05-16T00:08:52.653Z,19.23
2023-05-16T00:11:19.673Z,20.50
2023-05-16T00:13:47.866Z,20.42
2023-05-16T00:16:15.238Z,18.10
2023-05-16T00:18:45.909Z,22.58
2023-05-16T00:21:13.754Z,20.35
2023-05-16T00:23:40.749Z,23.20
2023-05-16T00:26:07.747Z,25.05
2023-05-16T00:28:34.989Z,22.30
2023-05-16T00:31:02.130Z,23.33
2023-05-16T00:33:29.438Z,21.58
2023-05-16T00:35:56.541Z,22.17
2023-05-16T00:38:26.343Z,21.73
2023-05-16T00:40:53.392Z,19.75
2023-05-16T00:43:20.570Z,20.70
2023-05-16T00:45:47.606Z,20.52
2023-05-16T00:48:15.910Z,25.40
2023-05-16T00:50:43.669Z,22.88
2023-05-16T00:53:11.466Z,21.23
2023-05-16T00:55:39.167Z,23.60
2023-05-16T00:58:07.370Z,20.95
2023-05-16T01:00:34.553Z,22.63
2023-05-16T01:03:01.940Z,19.90
2023-05-16T01:05:29.897Z,21.42
2023-05-16T01:07:57.182Z,23.15
2023-05-16T01:10:29.546Z,20.05
2023-05-16T01:13:37.127Z,20.93
2023-05-16T01:16:12.720Z,21.27
2023-05-16T01:19:08.341Z,20.10
2023-05-16T01:22:01.357Z,21.00
2023-05-16T01:24:44.278Z,21.02
2023-05-16T01:27:13.633Z,20.00
2023-05-16T01:29:40.859Z,20.23
2023-05-16T01:32:08.067Z,21.33
2023-05-16T01:34:35.671Z,19.55
2023-05-16T01:37:29.376Z,20.48
2023-05-16T01:40:16.470Z,22.02
2023-05-16T01:42:49.981Z,22.90
2023-05-16T01:45:36.362Z,21.90
2023-05-16T01:48:13.207Z,20.05
2023-05-16T01:50:47.408Z,21.48
2023-05-16T01:53:27.305Z,22.40
2023-05-16T01:56:01.570Z,20.42
2023-05-16T01:58:33.106Z,19.25
2023-05-16T02:01:07.364Z,17.58
2023-05-16T02:03:35.384Z,19.58
2023-05-16T02:06:02.631Z,17.40
2023-05-16T02:08:30.187Z,17.08
2023-05-16T02:10:57.234Z,18.63
2023-05-16T02:13:24.302Z,18.83
2023-05-16T02:15:51.589Z,18.05
2023-05-16T02:18:18.896Z,19.48
2023-05-16T02:20:45.923Z,16.60
2023-05-16T02:23:13.155Z,17.15
2023-05-16T02:25:40.363Z,16.25
2023-05-16T02:28:07.460Z,15.88
2023-05-16T02:30:34.558Z,16.75
2023-05-16T02:33:01.517Z,17.25
2023-05-16T02:35:29.041Z,15.10
2023-05-16T02:37:57.113Z,15.43
2023-05-16T02:40:24.165Z,12.57
2023-05-16T02:42:51.273Z,13.48
2023-05-16T02:45:18.475Z,17.23
2023-05-16T02:47:45.747Z,14.50
2023-05-16T02:50:12.771Z,12.27
2023-05-16T02:52:39.921Z,13.75
2023-05-16T02:57:37.827Z,12.15
2023-05-16T03:00:06.535Z,11.63
2023-05-16T03:02:33.794Z,11.10
2023-05-16T03:05:01.209Z,10.05
2023-05-16T03:07:28.401Z,9.68
2023-05-16T03:09:55.559Z,11.55
2023-05-16T03:12:22.777Z,8.90
2023-05-16T03:14:50.117Z,9.18
2023-05-16T03:17:17.387Z,10.18
2023-05-16T03:19:44.718Z,9.40
2023-05-16T03:22:12.052Z,8.55
2023-05-16T03:24:39.317Z,9.40
2023-05-16T03:27:06.563Z,8.68
2023-05-16T03:29:33.852Z,8.98
2023-05-16T03:32:01.045Z,9.23
2023-05-16T03:34:28.280Z,9.18
2023-05-16T03:36:55.835Z,9.88
2023-05-16T03:39:23.174Z,9.52
2023-05-16T03:41:50.341Z,8.68
2023-05-16T03:44:17.288Z,7.38
2023-05-16T03:46:46.503Z,7.97
2023-05-16T03:49:13.845Z,8.48
2023-05-16T03:51:40.876Z,9.10
2023-05-16T03:54:07.845Z,8.20
2023-05-16T03:56:35.211Z,8.43
2023-05-16T03:59:02.452Z,8.65
2023-05-16T04:01:29.804Z,12.80
2023-05-16T04:03:56.939Z,6.80
2023-05-16T04:06:24.485Z,8.85
2023-05-16T04:08:51.438Z,8.23
2023-05-16T04:11:18.538Z,7.95
2023-05-16T04:13:46.045Z,8.32
2023-05-16T04:16:13.222Z,6.97
2023-05-16T04:18:40.686Z,6.53
2023-05-16T04:21:07.781Z,7.95
2023-05-16T04:23:34.930Z,6.00
2023-05-16T04:26:04.284Z,7.07
2023-05-16T04:28:31.647Z,6.45
2023-05-16T04:30:59.105Z,5.25
2023-05-16T04:33:26.286Z,7.45
2023-05-16T04:35:54.764Z,4.88
2023-05-16T04:38:22.815Z,5.53
2023-05-16T04:40:53.142Z,6.72
2023-05-16T04:43:21.035Z,8.57
2023-05-16T04:45:48.772Z,6.05
2023-05-16T04:48:15.918Z,7.43
2023-05-16T04:50:42.951Z,6.93
2023-05-16T04:53:10.066Z,7.38
2023-05-16T04:55:37.894Z,6.00
2023-05-16T04:58:06.323Z,6.22
2023-05-16T05:00:33.510Z,5.13
2023-05-16T05:03:00.809Z,5.15
2023-05-16T05:05:28.286Z,4.45
2023-05-16T05:07:55.701Z,6.47
2023-05-16T05:10:22.750Z,6.47
2023-05-16T05:12:50.372Z,6.18
2023-05-16T05:15:17.978Z,6.55
2023-05-16T05:17:45.124Z,5.47
2023-05-16T05:20:13.212Z,5.75
2023-05-16T05:22:40.585Z,6.53
2023-05-16T05:25:08.495Z,4.85
2023-05-16T05:27:35.985Z,6.10
2023-05-16T05:30:04.286Z,8.75
2023-05-16T05:32:31.754Z,6.05
2023-05-16T05:34:59.047Z,8.02
2023-05-16T05:37:27.146Z,4.68
2023-05-16T05:39:54.326Z,6.72
2023-05-16T05:42:21.822Z,4.57
2023-05-16T05:44:48.980Z,4.55
2023-05-16T05:47:16.470Z,5.57
2023-05-16T05:49:44.239Z,4.13
2023-05-16T05:52:11.466Z,5.32
2023-05-16T05:54:38.660Z,5.35
2023-05-16T05:57:06.095Z,7.55
2023-05-16T05:59:33.856Z,8.75
2023-05-16T06:02:02.556Z,8.68
2023-05-16T06:04:29.759Z,6.82
2023-05-16T06:06:56.955Z,9.95
2023-05-16T06:09:24.203Z,8.02
2023-05-16T06:11:51.476Z,8.43
2023-05-16T06:14:18.383Z,9.63
2023-05-16T06:16:45.784Z,7.13
2023-05-16T06:19:16.233Z,9.93
2023-05-16T06:21:44.057Z,6.78
2023-05-16T06:24:12.397Z,7.82
2023-05-16T06:26:39.682Z,10.70
2023-05-16T06:29:06.789Z,8.25
2023-05-16T06:31:33.843Z,8.18
2023-05-16T06:34:01.070Z,7.43
2023-05-16T06:36:28.202Z,8.00
2023-05-16T06:38:55.243Z,6.88
2023-05-16T06:41:22.237Z,9.48
2023-05-16T06:43:49.720Z,5.43
2023-05-16T06:46:16.945Z,7.90
2023-05-16T06:48:44.301Z,8.65
2023-05-16T06:51:12.120Z,8.90
2023-05-16T06:53:39.311Z,7.13
2023-05-16T06:56:06.707Z,5.93
2023-05-16T06:58:33.831Z,5.78
2023-05-16T07:01:01.042Z,6.32
2023-05-16T07:03:29.256Z,6.03
2023-05-16T07:05:58.131Z,5.20
2023-05-16T07:08:29.082Z,3.80
2023-05-16T07:10:56.311Z,5.07
2023-05-16T07:13:23.535Z,5.88
2023-05-16T07:15:50.761Z,7.70
2023-05-16T07:18:17.891Z,4.88
2023-05-16T07:20:45.936Z,5.28
2023-05-16T07:23:13.124Z,4.85
2023-05-16T07:25:40.351Z,3.70
2023-05-16T07:28:07.569Z,3.70
2023-05-16T07:30:35.018Z,4.68
2023-05-16T07:33:02.067Z,7.10
2023-05-16T07:35:29.757Z,23.25
2023-05-16T07:37:57.085Z,5.95
2023-05-16T07:40:28.399Z,4.53
2023-05-16T07:42:55.948Z,2.47
2023-05-16T07:45:23.037Z,2.45
2023-05-16T07:47:50.150Z,3.80
2023-05-16T07:50:17.264Z,2.40
2023-05-16T07:52:44.363Z,2.83
2023-05-16T07:55:11.494Z,6.55
2023-05-16T07:57:38.919Z,3.20
2023-05-16T08:00:07.232Z,5.22
2023-05-16T08:02:35.178Z,4.13
2023-05-16T08:05:02.584Z,3.35
2023-05-16T08:07:29.671Z,3.42
2023-05-16T08:09:56.647Z,4.78
2023-05-16T08:12:24.940Z,5.18
2023-05-16T08:14:52.138Z,3.88
2023-05-16T08:17:19.245Z,3.25
2023-05-16T08:19:46.343Z,2.95
2023-05-16T08:22:13.608Z,4.57
2023-05-16T08:24:40.660Z,4.68
2023-05-16T08:27:08.776Z,5.65
2023-05-16T08:29:35.917Z,4.78
2023-05-16T08:32:02.917Z,5.90
2023-05-16T08:34:32.424Z,4.25
2023-05-16T08:37:00.579Z,4.32
2023-05-16T08:39:28.119Z,5.57
2023-05-16T08:41:55.615Z,4.90
2023-05-16T08:44:22.801Z,6.47
2023-05-16T08:46:53.219Z,4.63
2023-05-16T08:49:21.629Z,4.35
2023-05-16T08:51:52.049Z,3.05
2023-05-16T08:54:19.382Z,5.00
2023-05-16T08:56:48.814Z,4.00
2023-05-16T08:59:16.672Z,3.80
2023-05-16T09:01:45.076Z,3.67
2023-05-16T09:04:12.426Z,4.65
2023-05-16T09:06:39.650Z,5.90
2023-05-16T09:09:08.257Z,6.30
2023-05-16T09:11:37.132Z,9.35
2023-05-16T09:14:05.645Z,5.57
2023-05-16T09:16:32.838Z,4.80
2023-05-16T09:19:01.938Z,4.57
2023-05-16T09:21:32.651Z,11.70
2023-05-16T09:24:10.155Z,3.72
2023-05-16T09:26:39.183Z,8.73
2023-05-16T09:29:13.694Z,9.05
2023-05-16T09:31:41.195Z,5.13
2023-05-16T09:34:11.333Z,5.70
2023-05-16T09:36:38.583Z,7.18
2023-05-16T09:39:07.700Z,6.03
2023-05-16T09:41:36.464Z,7.38
2023-05-16T09:44:07.280Z,4.93
2023-05-16T09:46:38.574Z,5.15
2023-05-16T09:49:06.419Z,5.07
2023-05-16T09:51:34.610Z,6.60
2023-05-16T09:54:01.673Z,4.88
2023-05-16T09:56:30.191Z,7.05
2023-05-16T09:58:57.341Z,7.68
2023-05-16T10:01:25.973Z,7.93
2023-05-16T10:03:53.192Z,5.60
2023-05-16T10:06:21.031Z,6.35
2023-05-16T10:08:49.302Z,6.65
2023-05-16T10:11:19.099Z,4.53
2023-05-16T10:13:53.135Z,4.97
2023-05-16T10:16:23.841Z,7.20
2023-05-16T10:18:52.975Z,6.10
2023-05-16T10:21:23.132Z,7.20
2023-05-16T10:23:54.355Z,5.18
2023-05-16T10:26:26.808Z,6.40
2023-05-16T10:28:54.652Z,4.68
2023-05-16T10:31:23.078Z,6.72
2023-05-16T10:33:50.597Z,5.28
2023-05-16T10:36:18.497Z,5.82
2023-05-16T10:38:47.220Z,7.85
2023-05-16T10:41:14.993Z,7.32
2023-05-16T10:43:56.052Z,10.68
2023-05-16T10:46:24.595Z,7.70
2023-05-16T10:48:54.391Z,7.03
2023-05-16T10:51:22.478Z,9.13
2023-05-16T10:53:58.661Z,7.95
2023-05-16T10:56:28.643Z,9.82
2023-05-16T10:58:58.821Z,8.23
2023-05-16T11:01:30.361Z,6.57
2023-05-16T11:04:00.375Z,6.93
2023-05-16T11:06:53.458Z,8.45
2023-05-16T11:09:24.565Z,17.58
2023-05-16T11:12:03.894Z,8.18
2023-05-16T11:14:45.315Z,8.25
2023-05-16T11:17:15.079Z,6.85
2023-05-16T11:19:59.445Z,8.90
2023-05-16T11:22:31.030Z,6.85
2023-05-16T11:25:01.351Z,9.60
2023-05-16T11:27:37.744Z,10.82
2023-05-16T11:30:10.504Z,9.25
2023-05-16T11:32:40.050Z,7.82
2023-05-16T11:35:14.290Z,8.35
2023-05-16T11:37:42.997Z,6.35
2023-05-16T11:40:13.634Z,8.77
2023-05-16T11:42:50.867Z,9.70
2023-05-16T11:45:21.569Z,12.90
2023-05-16T11:47:50.877Z,7.15
2023-05-16T11:50:26.681Z,9.55
2023-05-16T11:52:57.287Z,13.05
2023-05-16T11:58:04.691Z,12.18
2023-05-16T12:00:32.835Z,9.50
2023-05-16T12:03:05.833Z,10.85
2023-05-16T12:05:35.094Z,11.75
2023-05-16T12:08:05.062Z,9.57
2023-05-16T12:10:40.905Z,12.38
2023-05-16T12:13:08.878Z,9.43
2023-05-16T12:15:36.073Z,12.68
2023-05-16T12:18:03.604Z,8.40
2023-05-16T12:20:31.034Z,10.75
2023-05-16T12:22:59.126Z,10.52
2023-05-16T12:25:32.669Z,11.75
2023-05-16T12:28:03.155Z,10.55
2023-05-16T12:30:32.625Z,14.30
2023-05-16T12:33:06.863Z,12.32
2023-05-16T12:35:38.846Z,10.27
2023-05-16T12:38:13.146Z,10.73
2023-05-16T12:40:42.707Z,16.95
2023-05-16T12:43:17.550Z,11.60
2023-05-16T12:45:59.166Z,10.70
2023-05-16T12:48:35.255Z,11.05
2023-05-16T12:51:19.506Z,13.23
2023-05-16T12:53:57.560Z,11.35
2023-05-16T12:56:34.083Z,12.10
2023-05-16T12:59:01.167Z,11.73
2023-05-16T13:01:28.526Z,11.30
2023-05-16T13:03:56.009Z,9.85
2023-05-16T13:06:23.273Z,9.45
2023-05-16T13:08:50.477Z,11.90
2023-05-16T13:11:17.524Z,10.13
2023-05-16T13:13:44.673Z,16.27
2023-05-16T13:16:11.783Z,13.77
2023-05-16T13:18:39.062Z,11.07
2023-05-16T13:21:06.746Z,9.27
2023-05-16T13:23:33.931Z,11.93
2023-05-16T13:26:01.410Z,10.98
2023-05-16T13:28:28.591Z,9.80
2023-05-16T13:30:55.738Z,11.60
2023-05-16T13:33:24.722Z,10.55
2023-05-16T13:35:51.966Z,12.68
2023-05-16T13:38:19.120Z,10.35
2023-05-16T13:40:46.330Z,9.20
2023-05-16T13:43:15.699Z,10.27
2023-05-16T13:45:44.846Z,11.90
2023-05-16T13:48:12.025Z,10.88
2023-05-16T13:50:44.234Z,9.63
2023-05-16T13:53:11.680Z,9.70
2023-05-16T13:55:38.832Z,9.93
2023-05-16T13:58:06.729Z,10.00
2023-05-16T14:00:44.275Z,12.30
2023-05-16T14:03:12.875Z,9.95
2023-05-16T14:05:40.144Z,7.63
2023-05-16T14:08:08.559Z,8.10
2023-05-16T14:10:36.420Z,7.75
2023-05-16T14:13:03.738Z,10.43
2023-05-16T14:15:31.250Z,11.20
2023-05-16T14:17:59.793Z,15.65
2023-05-16T14:20:26.925Z,10.27
2023-05-16T14:22:53.985Z,8.38
2023-05-16T14:25:21.211Z,16.60
2023-05-16T14:27:50.951Z,11.23
2023-05-16T14:30:17.953Z,8.65
2023-05-16T14:32:45.413Z,9.43
2023-05-16T14:35:12.499Z,10.25
2023-05-16T14:37:39.678Z,11.10
2023-05-16T14:40:09.099Z,11.43
2023-05-16T14:42:36.416Z,10.63
2023-05-16T14:45:03.733Z,12.07
2023-05-16T14:47:31.428Z,13.55
2023-05-16T14:49:58.593Z,9.57
2023-05-16T14:52:25.859Z,11.55
2023-05-16T14:54:53.024Z,11.63
2023-05-16T14:57:20.092Z,11.95
2023-05-16T14:59:48.702Z,10.25
2023-05-16T15:02:16.058Z,10.52
2023-05-16T15:04:43.271Z,12.93
2023-05-16T15:07:10.536Z,10.48
2023-05-16T15:09:37.660Z,12.55
2023-05-16T15:12:08.003Z,12.35
2023-05-16T15:14:35.311Z,12.73
2023-05-16T15:17:02.434Z,11.77
2023-05-16T15:19:29.500Z,11.80
2023-05-16T15:21:56.569Z,13.10
2023-05-16T15:24:26.414Z,11.80
2023-05-16T15:26:53.628Z,12.65
2023-05-16T15:29:21.562Z,13.50
2023-05-16T15:31:48.999Z,13.48
2023-05-16T15:34:16.081Z,13.98
2023-05-16T15:36:43.157Z,13.60
2023-05-16T15:39:13.332Z,15.45
2023-05-16T15:42:05.305Z,15.35
2023-05-16T15:44:27.667Z,13.20
2023-05-16T15:46:55.198Z,15.07
2023-05-16T15:49:25.952Z,14.38
2023-05-16T15:51:54.331Z,16.50
2023-05-16T15:54:21.833Z,13.95
2023-05-16T15:56:49.271Z,16.33
2023-05-16T15:59:17.667Z,13.98
2023-05-16T16:01:45.457Z,15.60
2023-05-16T16:04:14.085Z,16.45
2023-05-16T16:06:41.438Z,13.65
2023-05-16T16:09:09.584Z,14.00
2023-05-16T16:11:39.697Z,14.90
2023-05-16T16:14:08.653Z,18.15
2023-05-16T16:16:37.350Z,15.00
2023-05-16T16:19:04.520Z,16.58
2023-05-16T16:21:34.821Z,14.90
2023-05-16T16:24:01.902Z,14.55
2023-05-16T16:26:29.227Z,14.70
2023-05-16T16:28:56.288Z,15.25
2023-05-16T16:31:23.556Z,15.52
2023-05-16T16:33:50.775Z,15.65
2023-05-16T16:36:18.427Z,14.45
2023-05-16T16:38:46.083Z,13.15
2023-05-16T16:41:14.571Z,15.10
2023-05-16T16:43:42.404Z,16.52
2023-05-16T16:46:09.625Z,14.70
2023-05-16T16:48:37.104Z,15.68
2023-05-16T16:51:04.704Z,14.00
2023-05-16T16:53:32.406Z,16.30
2023-05-16T16:55:59.374Z,15.68
2023-05-16T16:58:26.562Z,18.75
2023-05-16T17:00:53.908Z,15.43
2023-05-16T17:03:23.852Z,22.58
2023-05-16T17:05:51.320Z,17.98
2023-05-16T17:08:20.725Z,17.15
2023-05-16T17:10:48.080Z,20.42
2023-05-16T17:13:17.791Z,18.85
2023-05-16T17:15:45.226Z,16.63
2023-05-16T17:18:12.410Z,15.27
2023-05-16T17:20:39.968Z,14.43
2023-05-16T17:23:09.778Z,15.07
2023-05-16T17:25:37.302Z,13.15
2023-05-16T17:28:04.731Z,17.65
2023-05-16T17:30:33.125Z,18.27
2023-05-16T17:33:00.817Z,18.48
2023-05-16T17:35:28.918Z,18.80
2023-05-16T17:37:56.812Z,18.05
2023-05-16T17:40:24.579Z,20.15
2023-05-16T17:42:51.799Z,20.63
2023-05-16T17:45:19.138Z,19.67
2023-05-16T17:47:46.779Z,18.33
2023-05-16T17:50:14.686Z,18.85
2023-05-16T17:52:41.814Z,18.50
2023-05-16T17:55:09.703Z,18.50
2023-05-16T17:57:36.974Z,19.58
2023-05-16T18:00:06.816Z,15.18
2023-05-16T18:02:36.642Z,19.83
2023-05-16T18:05:06.809Z,18.90
2023-05-16T18:07:34.327Z,21.42
2023-05-16T18:10:01.495Z,16.85
2023-05-16T18:12:29.235Z,16.95
2023-05-16T18:14:57.740Z,16.02
2023-05-16T18:17:25.499Z,16.73
2023-05-16T18:19:52.873Z,18.92
2023-05-16T18:22:20.113Z,20.27
2023-05-16T18:24:47.079Z,13.70
2023-05-16T18:27:14.409Z,23.52
2023-05-16T18:29:42.256Z,17.38
2023-05-16T18:32:10.081Z,17.58
2023-05-16T18:34:37.236Z,18.80
2023-05-16T18:37:04.479Z,17.17
2023-05-16T18:39:31.841Z,16.25
2023-05-16T18:41:59.309Z,18.80
2023-05-16T18:44:26.319Z,15.93
2023-05-16T18:46:53.523Z,15.93
2023-05-16T18:49:20.835Z,21.83
2023-05-16T18:51:49.044Z,18.55
2023-05-16T18:54:16.533Z,14.13
2023-05-16T18:56:43.619Z,18.13
2023-05-16T18:59:10.694Z,18.60
2023-05-16T19:01:37.820Z,22.58
2023-05-16T19:04:05.074Z,16.00
2023-05-16T19:06:32.170Z,16.85
2023-05-16T19:08:59.305Z,20.58
2023-05-16T19:11:26.692Z,19.40
2023-05-16T19:13:53.957Z,15.52
2023-05-16T19:16:21.265Z,15.73
2023-05-16T19:18:49.170Z,17.33
2023-05-16T19:21:16.803Z,17.98
2023-05-16T19:23:45.723Z,20.33
2023-05-16T19:26:13.609Z,16.30
2023-05-16T19:28:42.747Z,17.67
2023-05-16T19:31:11.208Z,19.05
2023-05-16T19:33:38.798Z,15.32
2023-05-16T19:36:06.908Z,17.73
2023-05-16T19:38:34.072Z,15.35
2023-05-16T19:41:03.043Z,18.50
2023-05-16T19:43:30.378Z,16.45
2023-05-16T19:45:57.644Z,20.98
2023-05-16T19:48:24.935Z,14.82
2023-05-16T19:50:52.400Z,14.55
2023-05-16T19:53:19.424Z,16.02
2023-05-16T19:55:47.935Z,15.73
2023-05-16T19:58:16.134Z,17.77
2023-05-16T20:00:43.414Z,11.90
2023-05-16T20:03:11.390Z,13.85
2023-05-16T20:05:38.848Z,12.55
2023-05-16T20:08:06.057Z,16.40
2023-05-16T20:10:33.178Z,14.35
2023-05-16T20:13:01.196Z,15.88
2023-05-16T20:15:28.568Z,12.35
2023-05-16T20:17:55.963Z,16.75
2023-05-16T20:20:27.843Z,14.30
2023-05-16T20:22:54.828Z,18.88
2023-05-16T20:25:21.988Z,12.48
2023-05-16T20:27:49.006Z,15.75
2023-05-16T20:30:17.595Z,16.05
2023-05-16T20:32:45.350Z,15.40
2023-05-16T20:35:12.333Z,13.32
2023-05-16T20:37:39.929Z,16.23
2023-05-16T20:40:08.722Z,15.00
2023-05-16T20:42:36.253Z,14.88
2023-05-16T20:45:04.443Z,14.75
2023-05-16T20:47:31.908Z,15.57
2023-05-16T20:49:59.009Z,16.02
2023-05-16T20:52:27.890Z,12.85
2023-05-16T20:54:55.130Z,21.05
2023-05-16T20:57:22.322Z,13.23
2023-05-16T20:59:51.987Z,15.70
2023-05-16T21:02:19.499Z,15.63
2023-05-16T21:04:46.656Z,16.13
2023-05-16T21:07:13.767Z,15.65
2023-05-16T21:09:42.461Z,12.07
2023-05-16T21:12:10.150Z,15.02
2023-05-16T21:14:37.973Z,21.42
2023-05-16T21:17:05.166Z,17.13
2023-05-16T21:19:34.855Z,12.75
2023-05-16T21:22:04.247Z,12.07
2023-05-16T21:24:36.270Z,12.27
2023-05-16T21:27:06.471Z,11.68
2023-05-16T21:29:33.744Z,13.00
2023-05-16T21:32:00.960Z,13.95
2023-05-16T21:34:28.359Z,10.70
2023-05-16T21:36:56.960Z,11.55
2023-05-16T21:39:24.150Z,12.38
2023-05-16T21:41:51.673Z,12.60
2023-05-16T21:44:18.859Z,15.07
2023-05-16T21:46:46.530Z,13.15
2023-05-16T21:49:14.103Z,10.95
2023-05-16T21:51:41.224Z,13.52
2023-05-16T21:54:08.428Z,10.70
2023-05-16T21:56:36.757Z,11.80
2023-05-16T21:59:03.962Z,11.82
2023-05-16T22:01:31.054Z,11.23
2023-05-16T22:03:59.236Z,16.40
2023-05-16T22:06:28.261Z,11.85
2023-05-16T22:08:56.253Z,12.65
2023-05-16T22:11:23.889Z,12.15
2023-05-16T22:13:51.417Z,14.32
2023-05-16T22:16:18.824Z,13.00
2023-05-16T22:18:45.929Z,11.98
2023-05-16T22:21:13.484Z,10.90
2023-05-16T22:23:41.176Z,15.20
2023-05-16T22:26:08.527Z,12.65
2023-05-16T22:28:35.626Z,14.73
2023-05-16T22:31:03.243Z,20.45
2023-05-16T22:33:30.550Z,14.18
2023-05-16T22:35:57.912Z,12.35
2023-05-16T22:38:25.022Z,16.02
2023-05-16T22:40:52.274Z,13.20
2023-05-16T22:43:19.556Z,16.05
2023-05-16T22:45:46.759Z,16.35
2023-05-16T22:48:14.193Z,13.50
2023-05-16T22:50:41.362Z,16.88
2023-05-16T22:53:08.522Z,13.88
2023-05-16T22:55:35.678Z,15.32
2023-05-16T22:58:02.922Z,12.65
2023-05-16T23:00:30.100Z,15.98
2023-05-16T23:03:00.148Z,16.20
2023-05-16T23:05:27.504Z,13.90
2023-05-16T23:07:55.036Z,13.57
2023-05-16T23:10:22.055Z,11.95
2023-05-16T23:12:49.342Z,14.13
2023-05-16T23:15:16.493Z,14.18
2023-05-16T23:17:43.661Z,12.68
2023-05-16T23:20:11.313Z,13.38
2023-05-16T23:22:38.440Z,15.73
2023-05-16T23:25:06.853Z,14.70
2023-05-16T23:27:33.925Z,13.95
2023-05-16T23:30:01.187Z,12.77
2023-05-16T23:32:28.708Z,14.73
2023-05-16T23:34:56.570Z,18.55
2023-05-16T23:37:23.636Z,16.38
2023-05-16T23:39:51.064Z,16.35
2023-05-16T23:42:18.189Z,17.63
2023-05-16T23:44:46.074Z,15.45
2023-05-16T23:47:13.166Z,13.57
2023-05-16T23:49:40.794Z,16.20
2023-05-16T23:52:08.225Z,15.98
2023-05-16T23:54:35.754Z,22.13
2023-05-16T23:57:02.741Z,19.83
2023-05-16T23:59:29.715Z,18.35
